Portada
METAR-TAF:

METAR-TAF

Aeroports :

Constantina, Algèria

latitud: 36-17N, longitud: 006-37E, altitud: 694 m

Observació

L'informe es va fer fa 42 minuts, a les 15:00 UTC
Vent 10 kt del Nord/Nord-Est
Temperatura 27°C
Humitat 30%
Pressió 1024 hPa
Visibilitat 10 km o més
Escasses núvols a una alçada de 3300 ft
Núvols disperses a una alçada de 20000 ft

METAR: DABC 251500Z 02010KT 9999 FEW033 SCT200 27/08 Q1024

Hora: 16:42 (15:42 UTC)

Pronòstic

L'informe es va fer fa 4 hores i 42 minuts, a les 11:00 UTC
Pronòstic vàlid del 25 a les 12 UTC al 26 a les 12 UTC
Vent 8 kt del Nord/Nord-Est
Visibilitat 10 km o més
Escasses núvols a una alçada de 3000 ft
Núvols disperses a una alçada de 10000 ft
Probabilitat 30% :
Temporalment
l' 25 a les 12 UTC al 25 a les 18 UTC
Vent 12 kt del Nord-Est

TAF: DABC 251100Z 2512/2612 02008KT 9999 FEW030 SCT100 PROB30 TEMPO 2512/2518 04012KT

Observacions i pronòstics meteorològics de més de 4000 aeroports (METAR i TAF).

Les estacions disponibles són els punts grocs i vermells al mapa.

Posi el ratolí al punt desitjat per veure el nom de l'estació.

Feu clic per veure les observacions i els pronòstics meteorològics.

Per canviar el mapa: feu clic els botons verds amb una creu de color negre per apropar; al botó verd amb un guió per allunyar la imatge; o en les fletxes verdes per a mapes adjacents.


METAR-TAF: